createdAt,value
2019-03-25T00:01:21.575Z,9.43
2019-03-25T00:03:53.106Z,9.53
2019-03-25T00:06:24.527Z,8.90
2019-03-25T00:09:05.028Z,10.00
2019-03-25T00:11:30.944Z,9.47
2019-03-25T00:14:04.475Z,9.18
2019-03-25T00:16:37.436Z,11.18
2019-03-25T00:19:10.924Z,11.80
2019-03-25T00:21:42.335Z,12.93
2019-03-25T00:24:13.617Z,12.53
2019-03-25T00:26:44.857Z,13.03
2019-03-25T00:29:16.132Z,12.80
2019-03-25T00:31:47.393Z,12.50
2019-03-25T00:34:18.790Z,13.20
2019-03-25T00:36:50.026Z,14.10
2019-03-25T00:39:21.371Z,12.00
2019-03-25T00:41:52.757Z,15.83
2019-03-25T00:44:24.108Z,16.10
2019-03-25T00:46:55.408Z,17.07
2019-03-25T00:49:26.683Z,15.80
2019-03-25T00:51:58.067Z,16.77
2019-03-25T00:54:29.343Z,12.37
2019-03-25T00:57:00.647Z,9.40
2019-03-25T00:59:33.052Z,11.30
2019-03-25T01:02:04.419Z,9.50
2019-03-25T01:04:35.685Z,7.67
2019-03-25T01:07:06.984Z,7.30
2019-03-25T01:09:38.256Z,7.13
2019-03-25T01:12:09.482Z,6.63
2019-03-25T01:14:40.774Z,9.33
2019-03-25T01:17:12.030Z,6.93
2019-03-25T01:19:43.418Z,7.73
2019-03-25T01:22:14.708Z,6.80
2019-03-25T01:24:46.054Z,6.83
2019-03-25T01:27:17.423Z,7.42
2019-03-25T01:29:48.702Z,9.73
2019-03-25T01:32:19.927Z,10.07
2019-03-25T01:34:51.208Z,8.93
2019-03-25T01:37:22.435Z,10.60
2019-03-25T01:39:53.707Z,10.10
2019-03-25T01:42:25.012Z,11.50
2019-03-25T01:44:56.293Z,11.33
2019-03-25T01:47:27.527Z,10.37
2019-03-25T01:49:58.804Z,12.00
2019-03-25T01:52:30.041Z,12.97
2019-03-25T01:55:12.699Z,12.87
2019-03-25T01:57:34.341Z,11.10
2019-03-25T02:00:09.104Z,11.43
2019-03-25T02:02:40.341Z,11.00
2019-03-25T02:05:11.793Z,10.13
2019-03-25T02:07:43.244Z,10.13
2019-03-25T02:10:14.846Z,9.40
2019-03-25T02:12:46.226Z,10.67
2019-03-25T02:15:17.615Z,9.37
2019-03-25T02:17:48.896Z,8.00
2019-03-25T02:20:26.345Z,9.60
2019-03-25T02:22:53.366Z,8.90
2019-03-25T02:25:25.818Z,8.73
2019-03-25T02:27:57.298Z,8.73
2019-03-25T02:30:28.655Z,9.10
2019-03-25T02:32:59.886Z,8.37
2019-03-25T02:35:31.304Z,8.23
2019-03-25T02:38:02.541Z,7.40
2019-03-25T02:40:33.836Z,8.87
2019-03-25T02:43:05.689Z,7.70
2019-03-25T02:45:36.996Z,7.73
2019-03-25T02:48:08.296Z,7.80
2019-03-25T02:50:39.650Z,7.73
2019-03-25T02:53:10.879Z,7.33
2019-03-25T02:55:42.662Z,6.60
2019-03-25T02:58:14.346Z,7.03
2019-03-25T03:00:47.147Z,6.43
2019-03-25T03:03:18.389Z,5.93
2019-03-25T03:05:49.683Z,5.67
2019-03-25T03:08:26.640Z,5.60
2019-03-25T03:10:57.987Z,5.43
2019-03-25T03:13:29.282Z,5.67
2019-03-25T03:16:17.198Z,4.97
2019-03-25T03:18:48.668Z,5.40
2019-03-25T03:21:19.965Z,5.77
2019-03-25T03:23:51.380Z,5.77
2019-03-25T03:26:22.789Z,5.53
2019-03-25T03:28:54.085Z,5.60
2019-03-25T03:31:25.507Z,5.33
2019-03-25T03:33:58.037Z,5.83
2019-03-25T03:36:29.358Z,4.90
2019-03-25T03:39:00.596Z,5.97
2019-03-25T03:41:41.942Z,5.70
2019-03-25T03:44:13.509Z,5.87
2019-03-25T03:46:45.031Z,4.87
2019-03-25T03:49:16.259Z,5.40
2019-03-25T03:51:47.785Z,5.63
2019-03-25T03:54:19.464Z,5.53
2019-03-25T03:56:52.270Z,5.90
2019-03-25T03:59:24.236Z,6.10
2019-03-25T04:01:56.384Z,6.27
2019-03-25T04:04:33.356Z,6.17
2019-03-25T04:07:04.703Z,5.57
2019-03-25T04:09:36.074Z,6.47
2019-03-25T04:12:07.791Z,6.33
2019-03-25T04:14:39.355Z,6.03
2019-03-25T04:17:10.702Z,6.83
2019-03-25T04:19:42.067Z,6.37
2019-03-25T04:22:13.358Z,6.43
2019-03-25T04:24:44.755Z,6.20
2019-03-25T04:27:16.095Z,5.97
2019-03-25T04:29:47.414Z,6.70
2019-03-25T04:32:18.817Z,6.20
2019-03-25T04:34:50.554Z,6.10
2019-03-25T04:37:21.827Z,5.70
2019-03-25T04:39:53.053Z,6.00
2019-03-25T04:42:24.402Z,5.60
2019-03-25T04:44:55.626Z,6.47
2019-03-25T04:47:26.932Z,5.97
2019-03-25T04:49:58.141Z,5.70
2019-03-25T04:52:29.415Z,6.10
2019-03-25T04:55:00.767Z,6.40
2019-03-25T04:57:32.826Z,6.73
2019-03-25T05:00:04.976Z,6.40
2019-03-25T05:02:36.451Z,5.80
2019-03-25T05:05:10.529Z,7.23
2019-03-25T05:07:42.009Z,6.00
2019-03-25T05:10:13.611Z,6.43
2019-03-25T05:12:44.952Z,6.33
2019-03-25T05:15:16.269Z,6.53
2019-03-25T05:17:47.556Z,6.10
2019-03-25T05:20:18.859Z,6.40
2019-03-25T05:22:50.207Z,6.00
2019-03-25T05:25:21.618Z,5.87
2019-03-25T05:27:52.907Z,6.70
2019-03-25T05:30:24.140Z,6.50
2019-03-25T05:32:55.896Z,7.30
2019-03-25T05:35:27.420Z,7.10
2019-03-25T05:37:58.657Z,7.13
2019-03-25T05:40:33.292Z,7.27
2019-03-25T05:43:04.733Z,6.63
2019-03-25T05:45:36.153Z,6.87
2019-03-25T05:48:07.378Z,6.53
2019-03-25T05:50:38.720Z,6.30
2019-03-25T05:53:09.995Z,5.87
2019-03-25T05:55:42.363Z,6.23
2019-03-25T05:58:13.756Z,7.47
2019-03-25T06:00:46.055Z,6.30
2019-03-25T06:03:17.410Z,6.23
2019-03-25T06:05:48.882Z,6.27
2019-03-25T06:08:20.231Z,6.30
2019-03-25T06:10:51.463Z,6.40
2019-03-25T06:13:22.829Z,5.70
2019-03-25T06:15:54.064Z,5.80
2019-03-25T06:18:25.347Z,5.50
2019-03-25T06:20:56.581Z,5.20
2019-03-25T06:23:28.124Z,5.77
2019-03-25T06:25:59.361Z,5.70
2019-03-25T06:28:30.983Z,5.17
2019-03-25T06:31:02.497Z,5.10
2019-03-25T06:33:34.053Z,4.90
2019-03-25T06:36:05.502Z,5.67
2019-03-25T06:38:36.786Z,5.35
2019-03-25T06:41:08.087Z,5.53
2019-03-25T06:43:39.437Z,5.92
2019-03-25T06:46:11.055Z,5.10
2019-03-25T06:48:42.346Z,4.80
2019-03-25T06:51:13.906Z,5.60
2019-03-25T06:53:45.397Z,4.80
2019-03-25T06:56:16.949Z,4.90
2019-03-25T06:58:48.306Z,4.93
2019-03-25T07:01:20.011Z,4.90
2019-03-25T07:03:51.716Z,5.33
2019-03-25T07:06:23.165Z,4.50
2019-03-25T07:08:54.497Z,5.20
2019-03-25T07:11:26.208Z,4.72
2019-03-25T07:13:59.172Z,5.08
2019-03-25T07:16:30.709Z,5.33
2019-03-25T07:19:02.088Z,5.53
2019-03-25T07:21:33.400Z,4.80
2019-03-25T07:24:06.522Z,5.33
2019-03-25T07:26:37.901Z,5.70
2019-03-25T07:29:09.234Z,5.00
2019-03-25T07:31:40.714Z,5.03
2019-03-25T07:34:12.177Z,5.43
2019-03-25T07:36:43.534Z,4.42
2019-03-25T07:39:14.985Z,4.30
2019-03-25T07:41:46.356Z,5.30
2019-03-25T07:44:17.764Z,5.33
2019-03-25T07:46:48.986Z,5.33
2019-03-25T07:49:20.337Z,4.65
2019-03-25T07:51:52.044Z,4.50
2019-03-25T07:54:23.398Z,5.05
2019-03-25T07:56:54.804Z,4.78
2019-03-25T07:59:26.293Z,5.47
2019-03-25T08:01:57.797Z,4.90
2019-03-25T08:04:29.124Z,5.45
2019-03-25T08:07:01.586Z,5.53
2019-03-25T08:09:34.178Z,5.15
2019-03-25T08:12:05.522Z,5.37
2019-03-25T08:14:37.905Z,5.15
2019-03-25T08:17:10.427Z,5.53
2019-03-25T08:19:41.838Z,6.03
2019-03-25T08:22:13.064Z,5.92
2019-03-25T08:24:44.610Z,5.87
2019-03-25T08:27:15.915Z,5.28
2019-03-25T08:29:47.336Z,7.12
2019-03-25T08:32:18.589Z,5.67
2019-03-25T08:34:49.881Z,4.60
2019-03-25T08:37:21.295Z,8.48
2019-03-25T08:39:52.571Z,5.78
2019-03-25T08:42:23.932Z,9.53
2019-03-25T08:44:55.242Z,6.47
2019-03-25T08:47:26.522Z,5.92
2019-03-25T08:49:57.970Z,5.15
2019-03-25T08:52:29.198Z,5.70
2019-03-25T08:55:00.609Z,5.05
2019-03-25T08:57:31.992Z,5.08
2019-03-25T09:00:04.438Z,5.08
2019-03-25T09:02:35.878Z,4.47
2019-03-25T09:05:08.947Z,4.80
2019-03-25T09:07:40.310Z,5.33
2019-03-25T09:10:12.263Z,4.85
2019-03-25T09:12:43.555Z,5.00
2019-03-25T09:15:15.378Z,4.47
2019-03-25T09:17:46.763Z,4.95
2019-03-25T09:20:18.210Z,4.87
2019-03-25T09:22:49.509Z,5.03
2019-03-25T09:25:20.928Z,5.35
2019-03-25T09:27:52.342Z,4.58
2019-03-25T09:30:54.023Z,5.12
2019-03-25T09:33:25.533Z,5.03
2019-03-25T09:35:56.963Z,5.00
2019-03-25T09:38:28.252Z,5.45
2019-03-25T09:40:59.670Z,4.60
2019-03-25T09:43:30.966Z,4.92
2019-03-25T09:46:02.373Z,5.05
2019-03-25T09:48:33.629Z,4.25
2019-03-25T09:51:05.111Z,3.80
2019-03-25T09:53:36.411Z,3.83
2019-03-25T09:56:07.913Z,3.98
2019-03-25T09:58:39.234Z,4.05
2019-03-25T10:01:13.420Z,3.90
2019-03-25T10:03:45.893Z,4.08
2019-03-25T10:06:17.283Z,3.55
2019-03-25T10:08:48.774Z,3.60
2019-03-25T10:11:20.327Z,3.72
2019-03-25T10:13:51.631Z,3.33
2019-03-25T10:16:23.110Z,2.83
2019-03-25T10:18:54.344Z,3.08
2019-03-25T10:21:25.619Z,3.10
2019-03-25T10:23:56.944Z,2.67
2019-03-25T10:26:28.363Z,2.67
2019-03-25T10:28:59.587Z,3.40
2019-03-25T10:31:30.861Z,3.00
2019-03-25T10:34:02.117Z,2.65
2019-03-25T10:36:33.466Z,3.00
2019-03-25T10:39:06.758Z,2.40
2019-03-25T10:41:38.535Z,2.70
2019-03-25T10:44:11.000Z,2.02
2019-03-25T10:46:42.542Z,2.80
2019-03-25T10:49:16.132Z,2.08
2019-03-25T10:51:47.265Z,2.37
2019-03-25T10:54:18.715Z,2.10
2019-03-25T10:56:50.140Z,1.87
2019-03-25T10:59:21.528Z,2.50
2019-03-25T11:01:53.169Z,2.67
2019-03-25T11:04:24.529Z,2.95
2019-03-25T11:06:55.877Z,2.60
2019-03-25T11:09:27.098Z,2.37
2019-03-25T11:11:58.471Z,2.60
2019-03-25T11:14:29.774Z,2.65
2019-03-25T11:17:01.133Z,2.10
2019-03-25T11:19:32.589Z,2.35
2019-03-25T11:22:04.009Z,2.10
2019-03-25T11:24:35.423Z,1.90
2019-03-25T11:27:08.097Z,2.10
2019-03-25T11:29:39.356Z,2.37
2019-03-25T11:32:10.667Z,1.77
2019-03-25T11:34:41.981Z,2.02
2019-03-25T11:37:13.340Z,1.57
2019-03-25T11:39:44.650Z,1.87
2019-03-25T11:42:15.948Z,1.65
2019-03-25T11:44:48.322Z,2.05
2019-03-25T11:47:19.729Z,1.90
2019-03-25T11:49:50.975Z,1.77
2019-03-25T11:52:22.324Z,1.90
2019-03-25T11:54:53.612Z,1.90
2019-03-25T11:57:25.067Z,1.52
2019-03-25T11:59:56.518Z,2.02
2019-03-25T12:02:27.881Z,1.80
2019-03-25T12:05:01.642Z,1.57
2019-03-25T12:07:33.130Z,1.47
2019-03-25T12:10:06.971Z,1.00
2019-03-25T12:12:38.298Z,1.40
2019-03-25T12:15:10.441Z,1.30
2019-03-25T12:17:41.908Z,1.50
2019-03-25T12:20:13.383Z,1.37
2019-03-25T12:22:44.668Z,1.30
2019-03-25T12:25:16.077Z,1.02
2019-03-25T12:27:47.428Z,1.50
2019-03-25T12:30:19.177Z,1.05
2019-03-25T12:32:50.566Z,1.20
2019-03-25T12:35:21.873Z,0.72
2019-03-25T12:37:53.173Z,1.02
2019-03-25T12:40:24.498Z,1.15
2019-03-25T12:42:55.858Z,1.20
2019-03-25T12:45:28.434Z,1.37
2019-03-25T12:48:00.105Z,1.10
2019-03-25T12:50:34.076Z,1.42
2019-03-25T12:53:05.528Z,1.52
2019-03-25T12:55:36.896Z,1.27
2019-03-25T12:58:08.332Z,1.22
2019-03-25T13:00:41.943Z,1.10
2019-03-25T13:03:14.366Z,1.20
2019-03-25T13:05:46.526Z,1.12
2019-03-25T13:08:17.813Z,1.12
2019-03-25T13:10:49.598Z,1.82
2019-03-25T13:13:20.978Z,1.42
2019-03-25T13:15:53.527Z,1.07
2019-03-25T13:18:24.774Z,1.10
2019-03-25T13:20:56.153Z,1.67
2019-03-25T13:23:27.510Z,1.42
2019-03-25T13:25:58.825Z,1.20
2019-03-25T13:28:30.180Z,1.37
2019-03-25T13:31:01.425Z,1.35
2019-03-25T13:33:32.895Z,1.65
2019-03-25T13:36:04.772Z,1.20
2019-03-25T13:38:37.673Z,1.60
2019-03-25T13:41:09.049Z,1.15
2019-03-25T13:43:40.337Z,1.25
2019-03-25T13:46:11.665Z,1.00
2019-03-25T13:48:43.032Z,1.12
2019-03-25T13:51:14.294Z,1.42
2019-03-25T13:53:45.659Z,0.80
2019-03-25T13:56:16.965Z,1.40
2019-03-25T13:58:48.330Z,0.80
2019-03-25T14:01:19.642Z,0.70
2019-03-25T14:03:54.119Z,0.75
2019-03-25T14:06:25.457Z,1.00
2019-03-25T14:08:56.823Z,1.05
2019-03-25T14:11:28.335Z,0.70
2019-03-25T14:14:00.322Z,0.60
2019-03-25T14:16:31.980Z,0.57
2019-03-25T14:19:05.481Z,0.60
2019-03-25T14:21:43.719Z,0.78
2019-03-25T14:24:27.410Z,0.53
2019-03-25T14:26:52.395Z,0.70
2019-03-25T14:29:24.343Z,0.68
2019-03-25T14:31:55.583Z,0.60
2019-03-25T14:34:27.291Z,0.50
2019-03-25T14:36:58.632Z,0.80
2019-03-25T14:39:29.924Z,0.82
2019-03-25T14:42:01.169Z,0.80
2019-03-25T14:44:36.254Z,0.95
2019-03-25T14:47:07.844Z,1.20
2019-03-25T14:49:39.189Z,1.00
2019-03-25T14:52:10.573Z,0.88
2019-03-25T14:54:41.860Z,0.88
2019-03-25T14:57:13.134Z,1.00
2019-03-25T14:59:46.668Z,0.88
2019-03-25T15:02:18.104Z,0.90
2019-03-25T15:04:49.344Z,0.78
2019-03-25T15:07:24.782Z,0.90
2019-03-25T15:09:56.204Z,0.80
2019-03-25T15:12:29.026Z,0.78
2019-03-25T15:15:00.413Z,1.00
2019-03-25T15:17:35.061Z,0.82
2019-03-25T15:20:10.829Z,0.90
2019-03-25T15:22:42.268Z,1.00
2019-03-25T15:25:15.927Z,1.00
2019-03-25T15:27:47.490Z,0.80
2019-03-25T15:30:20.053Z,0.98
2019-03-25T15:32:52.508Z,1.00
2019-03-25T15:35:24.125Z,1.00
2019-03-25T15:37:59.992Z,0.70
2019-03-25T15:40:31.517Z,0.80
2019-03-25T15:43:03.963Z,1.00
2019-03-25T15:45:35.583Z,1.00
2019-03-25T15:48:07.282Z,1.00
2019-03-25T15:50:38.733Z,1.50
2019-03-25T15:53:11.932Z,1.32
2019-03-25T15:55:43.293Z,0.93
2019-03-25T15:58:25.333Z,0.85
2019-03-25T16:00:48.762Z,0.90
2019-03-25T16:03:20.103Z,1.10
2019-03-25T16:05:51.569Z,1.10
2019-03-25T16:08:39.039Z,1.30
2019-03-25T16:11:18.725Z,0.78
2019-03-25T16:13:52.123Z,0.95
2019-03-25T16:16:23.539Z,1.20
2019-03-25T16:18:56.526Z,1.07
2019-03-25T16:21:29.214Z,0.90
2019-03-25T16:24:00.680Z,1.00
2019-03-25T16:26:31.998Z,1.07
2019-03-25T16:29:06.570Z,1.00
2019-03-25T16:31:37.851Z,1.30
2019-03-25T16:34:11.116Z,0.80
2019-03-25T16:36:42.398Z,1.10
2019-03-25T16:39:13.874Z,1.02
2019-03-25T16:41:46.068Z,0.90
2019-03-25T16:44:17.401Z,1.00
2019-03-25T16:46:48.772Z,2.40
2019-03-25T16:49:20.116Z,3.27
2019-03-25T16:51:52.434Z,1.07
2019-03-25T16:55:10.372Z,2.10
2019-03-25T16:58:13.036Z,1.10
2019-03-25T17:00:45.556Z,1.67
2019-03-25T17:03:17.146Z,1.25
2019-03-25T17:05:56.976Z,1.05
2019-03-25T17:08:40.629Z,1.52
2019-03-25T17:11:15.678Z,1.30
2019-03-25T17:13:49.431Z,1.47
2019-03-25T17:16:23.387Z,1.10
2019-03-25T17:18:54.668Z,1.50
2019-03-25T17:21:27.447Z,1.35
2019-03-25T17:23:58.791Z,1.00
2019-03-25T17:26:41.805Z,0.93
2019-03-25T17:29:04.369Z,0.80
2019-03-25T17:31:36.799Z,0.80
2019-03-25T17:34:08.168Z,0.70
2019-03-25T17:36:39.692Z,0.55
2019-03-25T17:39:11.129Z,0.60
2019-03-25T17:41:42.568Z,0.80
2019-03-25T17:44:14.839Z,1.10
2019-03-25T17:46:46.770Z,0.82
2019-03-25T17:49:22.846Z,0.80
2019-03-25T17:51:54.320Z,1.27
2019-03-25T17:54:25.800Z,1.05
2019-03-25T17:58:09.209Z,1.32
2019-03-25T18:01:01.587Z,1.70
2019-03-25T18:10:33.870Z,2.20
2019-03-25T18:13:05.567Z,4.53
2019-03-25T18:15:37.043Z,5.03
2019-03-25T18:18:08.560Z,1.80
2019-03-25T18:20:39.897Z,2.00
2019-03-25T18:23:11.392Z,1.43
2019-03-25T18:28:43.531Z,3.30
2019-03-25T18:31:15.819Z,3.80
2019-03-25T18:33:47.353Z,2.40
2019-03-25T18:36:31.509Z,2.13
2019-03-25T18:39:07.804Z,2.37
2019-03-25T18:41:39.472Z,2.37
2019-03-25T18:44:10.922Z,1.80
2019-03-25T18:46:45.582Z,1.93
2019-03-25T18:49:17.169Z,1.80
2019-03-25T18:51:48.447Z,1.30
2019-03-25T18:54:19.816Z,1.60
2019-03-25T18:56:51.259Z,1.70
2019-03-25T18:59:24.305Z,1.90
2019-03-25T19:01:55.670Z,1.60
2019-03-25T19:04:29.936Z,1.90
2019-03-25T19:07:01.420Z,1.20
2019-03-25T19:09:33.077Z,2.33
2019-03-25T19:12:05.456Z,1.50
2019-03-25T19:14:43.716Z,1.50
2019-03-25T19:17:20.861Z,1.43
2019-03-25T19:19:54.016Z,1.30
2019-03-25T19:22:25.405Z,1.40
2019-03-25T19:24:57.101Z,1.50
2019-03-25T19:27:28.392Z,1.60
2019-03-25T19:29:59.819Z,1.83
2019-03-25T19:32:31.404Z,1.60
2019-03-25T19:35:03.747Z,1.53
2019-03-25T19:37:35.192Z,1.60
2019-03-25T19:40:09.735Z,1.43
2019-03-25T19:42:41.138Z,1.93
2019-03-25T19:45:14.949Z,1.90
2019-03-25T19:47:46.894Z,1.77
2019-03-25T19:50:19.841Z,1.70
2019-03-25T19:52:51.266Z,1.70
2019-03-25T19:55:22.730Z,1.70
2019-03-25T19:57:54.135Z,1.40
2019-03-25T20:00:37.909Z,1.57
2019-03-25T20:03:09.222Z,1.67
2019-03-25T20:05:40.898Z,2.00
2019-03-25T20:08:12.280Z,1.77
2019-03-25T20:10:43.790Z,1.90
2019-03-25T20:13:15.118Z,1.80
2019-03-25T20:15:47.004Z,1.93
2019-03-25T20:18:18.591Z,1.97
2019-03-25T20:20:50.135Z,2.30
2019-03-25T20:23:21.705Z,2.37
2019-03-25T20:25:53.283Z,2.13
2019-03-25T20:28:24.670Z,2.40
2019-03-25T20:30:56.233Z,3.00
2019-03-25T20:33:28.130Z,2.73
2019-03-25T20:35:59.575Z,2.30
2019-03-25T20:38:34.037Z,2.77
2019-03-25T20:41:07.028Z,2.63
2019-03-25T20:43:38.413Z,2.60
2019-03-25T20:46:09.883Z,2.60
2019-03-25T20:48:42.834Z,2.42
2019-03-25T20:51:14.391Z,2.93
2019-03-25T20:53:45.731Z,3.13
2019-03-25T20:56:17.584Z,2.80
2019-03-25T20:58:49.936Z,3.33
2019-03-25T21:01:21.648Z,2.97
2019-03-25T21:03:53.130Z,2.93
2019-03-25T21:06:24.453Z,3.60
2019-03-25T21:08:55.947Z,3.33
2019-03-25T21:11:27.474Z,3.40
2019-03-25T21:14:01.045Z,3.33
2019-03-25T21:16:32.590Z,3.73
2019-03-25T21:19:03.864Z,3.10
2019-03-25T21:21:35.405Z,2.90
2019-03-25T21:24:06.860Z,2.73
2019-03-25T21:26:38.307Z,2.50
2019-03-25T21:29:09.710Z,2.58
2019-03-25T21:31:42.287Z,2.30
2019-03-25T21:34:13.969Z,2.57
2019-03-25T21:36:45.493Z,2.30
2019-03-25T21:39:16.847Z,2.80
2019-03-25T21:41:48.674Z,2.20
2019-03-25T21:44:20.099Z,2.00
2019-03-25T21:46:51.398Z,2.43
2019-03-25T21:49:22.758Z,2.62
2019-03-25T21:51:54.185Z,2.83
2019-03-25T21:54:25.642Z,2.47
2019-03-25T21:56:57.201Z,2.50
2019-03-25T21:59:29.611Z,2.30
2019-03-25T22:02:01.146Z,2.40
2019-03-25T22:04:32.599Z,2.27
2019-03-25T22:07:04.042Z,2.50
2019-03-25T22:09:35.329Z,2.40
2019-03-25T22:12:06.777Z,3.10
2019-03-25T22:14:38.297Z,2.42
2019-03-25T22:17:09.802Z,2.90
2019-03-25T22:19:42.864Z,2.87
2019-03-25T22:22:15.933Z,2.47
2019-03-25T22:24:47.350Z,2.70
2019-03-25T22:27:19.775Z,2.33
2019-03-25T22:29:53.410Z,2.77
2019-03-25T22:32:24.796Z,2.70
2019-03-25T22:34:56.078Z,2.70
2019-03-25T22:37:27.600Z,2.60
2019-03-25T22:39:59.353Z,2.90
2019-03-25T22:42:31.654Z,3.10
2019-03-25T22:45:02.938Z,3.07
2019-03-25T22:47:35.046Z,3.60
2019-03-25T22:50:08.554Z,3.40
2019-03-25T22:52:40.066Z,3.37
2019-03-25T22:55:11.395Z,3.10
2019-03-25T22:57:42.768Z,2.97
2019-03-25T23:00:17.824Z,2.90
2019-03-25T23:02:50.832Z,2.43
2019-03-25T23:05:22.082Z,3.20
2019-03-25T23:07:53.396Z,3.00
2019-03-25T23:10:24.769Z,3.00
2019-03-25T23:12:56.144Z,3.17
2019-03-25T23:15:27.457Z,3.50
2019-03-25T23:17:58.827Z,3.47
2019-03-25T23:20:30.153Z,3.52
2019-03-25T23:23:01.542Z,4.00
2019-03-25T23:25:32.874Z,4.40
2019-03-25T23:28:04.287Z,4.60
2019-03-25T23:30:35.659Z,5.43
2019-03-25T23:33:07.071Z,4.07
2019-03-25T23:35:38.590Z,4.87
2019-03-25T23:38:09.913Z,4.90
2019-03-25T23:40:41.424Z,5.13
2019-03-25T23:43:13.970Z,4.63
2019-03-25T23:45:45.462Z,4.80
2019-03-25T23:48:17.838Z,4.87
2019-03-25T23:50:50.255Z,5.63
2019-03-25T23:53:21.801Z,5.30
2019-03-25T23:55:53.134Z,5.30
2019-03-25T23:58:24.486Z,4.73
